Time;durP1;ratioP1;P1;durP2;ratioP2;P2;SDS_P1;SDS_P2;PMS_P1;PMS_P2;Temp;Humidity;BMP_temperature;BMP_pressure;BME280_temperature;BME280_humidity;BME280_pressure;Samples;Min_cycle;Max_cycle;Signal;HPM_P1;HPM_P2
2023/03/31 00:00:48;;;;;;;9.18;2.50;;;;;;;12.36;79.87;100147.78;3614244;39;20126;-68
2023/03/31 00:03:20;;;;;;;7.07;2.50;;;;;;;12.18;80.14;100112.38;3612511;39;20043;-69
2023/03/31 00:05:53;;;;;;;6.32;2.67;;;;;;;12.27;80.97;100127.81;3605649;39;20043;-68
2023/03/31 00:08:20;;;;;;;9.48;2.70;;;;;;;12.21;81.26;100114.81;3607499;39;20062;-67
2023/03/31 00:10:47;;;;;;;6.03;2.17;;;;;;;12.19;81.93;100109.56;3607954;39;20385;-68
2023/03/31 00:13:13;;;;;;;8.95;2.30;;;;;;;12.18;81.98;100105.16;3609686;39;20355;-68
2023/03/31 00:15:39;;;;;;;5.43;2.15;;;;;;;12.01;82.29;100071.47;3611837;39;20142;-68
2023/03/31 00:18:05;;;;;;;7.07;2.22;;;;;;;12.12;82.27;100085.94;3610250;39;20050;-68
2023/03/31 00:20:32;;;;;;;6.32;2.40;;;;;;;12.12;82.62;100086.78;3610677;39;20317;-69
2023/03/31 00:23:00;;;;;;;7.72;2.50;;;;;;;12.10;82.24;100083.34;3608806;39;20493;-69
2023/03/31 00:25:26;;;;;;;7.45;2.50;;;;;;;12.10;82.46;100074.44;3598714;39;20051;-67
2023/03/31 00:27:52;;;;;;;5.78;2.05;;;;;;;12.02;83.09;100056.16;3605420;39;20083;-67
2023/03/31 00:30:18;;;;;;;7.53;2.45;;;;;;;12.06;83.30;100060.34;3610164;39;20066;-67
2023/03/31 00:32:44;;;;;;;6.82;2.15;;;;;;;12.04;83.01;100055.06;3613129;39;20592;-67
2023/03/31 00:35:10;;;;;;;7.43;2.25;;;;;;;12.05;83.20;100064.00;3612990;39;20060;-67
2023/03/31 00:37:36;;;;;;;8.10;1.98;;;;;;;12.03;83.47;100049.81;3608608;39;20150;-67
2023/03/31 00:40:08;;;;;;;5.78;2.03;;;;;;;11.93;82.64;100032.69;3607250;39;20062;-67
2023/03/31 00:42:43;;;;;;;7.55;2.22;;;;;;;12.00;83.35;100037.44;3606533;39;20043;-67
2023/03/31 00:45:14;;;;;;;7.43;2.15;;;;;;;11.98;82.67;100035.84;3606502;39;20063;-67
2023/03/31 00:47:56;;;;;;;9.32;2.58;;;;;;;11.98;83.00;100035.84;3613919;39;20278;-67
2023/03/31 00:50:29;;;;;;;7.80;2.40;;;;;;;11.49;82.40;99953.59;3611629;39;20114;-67
2023/03/31 00:53:02;;;;;;;11.15;2.45;;;;;;;11.92;82.85;100020.19;3613562;39;20046;-67
2023/03/31 00:55:40;;;;;;;8.73;2.15;;;;;;;11.95;83.18;100017.25;3611884;39;20087;-67
2023/03/31 00:58:13;;;;;;;8.70;2.33;;;;;;;11.91;83.16;100005.00;3598765;39;20059;-68
2023/03/31 01:00:41;;;;;;;10.40;2.47;;;;;;;11.90;83.16;99995.22;3608175;39;20389;-68
2023/03/31 01:03:08;;;;;;;7.18;2.20;;;;;;;11.98;82.34;100003.53;3612766;39;20305;-68
2023/03/31 01:05:52;;;;;;;8.45;2.15;;;;;;;11.95;82.77;100011.84;3613247;39;20066;-68
2023/03/31 01:08:24;;;;;;;8.85;1.90;;;;;;;11.98;82.70;99992.75;3608231;39;20095;-68
2023/03/31 01:10:59;;;;;;;9.18;2.40;;;;;;;12.01;82.78;99998.75;3609605;39;20071;-68
2023/03/31 01:13:26;;;;;;;6.88;1.95;;;;;;;12.03;82.47;99993.25;3610469;39;20382;-68
2023/03/31 01:15:52;;;;;;;8.88;1.77;;;;;;;12.03;82.56;99987.88;3616654;39;20061;-68
2023/03/31 01:18:21;;;;;;;6.10;1.67;;;;;;;11.99;82.73;99983.72;3612427;39;20645;-68
2023/03/31 01:21:35;;;;;;;8.02;2.30;;;;;;;12.02;83.25;99980.75;3612118;39;20071;-68
2023/03/31 01:24:50;;;;;;;8.23;1.88;;;;;;;12.02;83.43;99972.66;3606310;39;20059;-68
2023/03/31 01:27:43;;;;;;;10.57;2.50;;;;;;;12.01;83.27;99973.66;3593343;39;20045;-68
2023/03/31 01:30:35;;;;;;;9.02;2.17;;;;;;;11.95;83.84;99968.75;3610427;39;20312;-68
2023/03/31 01:33:21;;;;;;;11.25;2.35;;;;;;;11.96;83.87;99957.03;3609634;39;20108;-68
2023/03/31 01:36:21;;;;;;;7.63;1.90;;;;;;;11.95;83.87;99960.69;3607422;39;20116;-68
2023/03/31 01:39:08;;;;;;;7.13;2.00;;;;;;;11.94;84.12;99958.97;3609598;39;20327;-68
2023/03/31 01:41:56;;;;;;;8.02;2.20;;;;;;;11.91;84.65;99949.31;3612110;39;20313;-68
2023/03/31 01:45:02;;;;;;;10.55;2.67;;;;;;;11.83;84.77;99931.06;3614450;39;20055;-68
2023/03/31 01:47:43;;;;;;;11.88;2.55;;;;;;;11.89;85.54;99942.31;3610118;39;20623;-68
2023/03/31 01:50:39;;;;;;;9.88;2.40;;;;;;;11.85;85.58;99934.50;3595346;39;21941;-68
2023/03/31 01:53:13;;;;;;;11.38;2.47;;;;;;;11.87;85.26;99912.00;3606634;39;20066;-68
2023/03/31 01:56:05;;;;;;;9.68;2.63;;;;;;;11.81;85.83;99916.00;3610546;39;20538;-68
2023/03/31 01:58:48;;;;;;;10.20;2.20;;;;;;;11.78;85.10;99894.72;3612350;39;20062;-66
2023/03/31 02:01:36;;;;;;;9.45;2.65;;;;;;;11.78;85.05;99894.72;3612871;39;20142;-67
2023/03/31 02:04:12;;;;;;;9.40;2.38;;;;;;;11.78;85.34;99890.19;3608998;39;20067;-67
2023/03/31 02:06:48;;;;;;;9.75;2.20;;;;;;;11.80;85.20;99876.59;3603634;39;20061;-67
2023/03/31 02:09:25;;;;;;;13.98;2.80;;;;;;;11.77;84.95;99864.25;3607849;39;20122;-68
2023/03/31 02:11:56;;;;;;;10.65;2.50;;;;;;;11.76;85.84;99853.59;3606025;39;20120;-67
2023/03/31 02:14:29;;;;;;;11.13;2.30;;;;;;;11.77;85.83;99852.63;3607788;39;20064;-67
2023/03/31 02:17:01;;;;;;;13.02;3.22;;;;;;;11.75;86.27;99836.59;3610359;39;20051;-67
2023/03/31 02:19:36;;;;;;;10.80;2.30;;;;;;;11.63;86.69;99800.75;3614194;39;20050;-68
2023/03/31 02:22:07;;;;;;;13.38;3.40;;;;;;;11.83;86.61;99819.81;3608784;39;20470;-67
2023/03/31 02:24:38;;;;;;;12.35;3.17;;;;;;;11.82;86.98;99816.25;3608548;39;20301;-68
2023/03/31 02:27:16;;;;;;;14.77;3.30;;;;;;;11.83;87.18;99806.34;3607071;39;20099;-67
2023/03/31 02:29:41;;;;;;;14.45;3.13;;;;;;;11.85;87.80;99794.47;3610237;39;20131;-68
2023/03/31 02:32:34;;;;;;;10.55;2.78;;;;;;;11.82;87.73;99792.00;3609387;39;20066;-67
2023/03/31 02:35:01;;;;;;;14.20;3.30;;;;;;;11.73;87.64;99770.38;3612163;39;20419;-68
2023/03/31 02:37:29;;;;;;;12.57;2.70;;;;;;;11.78;88.10;99769.03;3617942;39;20143;-68
2023/03/31 02:40:05;;;;;;;14.50;3.38;;;;;;;11.78;87.36;99750.16;3605488;39;20094;-68
2023/03/31 02:42:31;;;;;;;10.15;2.55;;;;;;;11.81;88.15;99741.84;3600348;39;20062;-68
2023/03/31 02:45:41;;;;;;;12.35;2.92;;;;;;;11.83;87.64;99745.25;3607296;39;20050;-68
2023/03/31 02:48:23;;;;;;;12.38;3.05;;;;;;;11.84;87.20;99738.91;3609141;39;20382;-68
2023/03/31 02:51:07;;;;;;;11.63;4.00;;;;;;;11.82;88.10;99727.38;3612280;39;20377;-68
2023/03/31 02:53:54;;;;;;;10.07;2.95;;;;;;;11.83;87.63;99709.41;3612359;39;20399;-68
2023/03/31 02:56:32;;;;;;;13.70;3.58;;;;;;;11.82;87.67;99703.16;3596217;39;20059;-68
2023/03/31 02:59:12;;;;;;;8.63;2.67;;;;;;;11.81;87.40;99687.97;3605979;39;20079;-67
2023/03/31 03:02:24;;;;;;;11.80;2.88;;;;;;;11.77;87.49;99677.63;3595159;39;20279;-67
2023/03/31 03:05:03;;;;;;;15.20;3.33;;;;;;;11.83;87.15;99672.56;3564206;40;20044;-67
2023/03/31 03:07:55;;;;;;;15.43;3.45;;;;;;;11.84;87.77;99679.69;3610828;39;20063;-68
2023/03/31 03:11:12;;;;;;;14.43;3.28;;;;;;;11.81;87.67;99677.22;3615385;39;20078;-68
2023/03/31 03:14:06;;;;;;;13.40;3.00;;;;;;;11.54;87.44;99633.78;3614152;39;20040;-68
2023/03/31 03:16:42;;;;;;;13.45;3.38;;;;;;;11.81;86.75;99671.84;3605250;39;20091;-68
2023/03/31 03:19:09;;;;;;;8.18;2.95;;;;;;;11.84;87.75;99663.53;3608488;39;20057;-68
2023/03/31 03:21:35;;;;;;;16.75;3.13;;;;;;;11.81;86.64;99658.38;3608418;39;20069;-68
2023/03/31 03:24:01;;;;;;;12.48;2.70;;;;;;;11.83;87.11;99651.03;3613442;39;20062;-68
2023/03/31 03:26:27;;;;;;;14.93;2.90;;;;;;;11.85;87.42;99658.97;3615645;39;20426;-67
2023/03/31 03:28:55;;;;;;;12.70;2.97;;;;;;;11.82;86.63;99657.38;3616009;39;20444;-67
2023/03/31 03:31:22;;;;;;;13.93;2.90;;;;;;;11.76;87.63;99649.81;3606581;39;20297;-67
2023/03/31 03:33:52;;;;;;;11.43;3.13;;;;;;;11.79;87.33;99644.16;3604623;39;20117;-67
2023/03/31 03:36:19;;;;;;;10.57;2.63;;;;;;;11.81;87.10;99652.97;3608951;39;20116;-68
2023/03/31 03:38:45;;;;;;;10.88;2.55;;;;;;;11.82;86.66;99641.22;3605347;39;20050;-68
2023/03/31 03:41:10;;;;;;;11.75;3.00;;;;;;;11.81;86.59;99633.28;3607165;39;20055;-68
2023/03/31 03:43:36;;;;;;;12.98;2.78;;;;;;;11.79;87.17;99628.00;3613122;39;20042;-68
2023/03/31 03:46:01;;;;;;;15.63;3.20;;;;;;;11.74;86.27;99614.13;3610647;39;20274;-69
2023/03/31 03:48:27;;;;;;;10.65;2.42;;;;;;;11.70;86.88;99612.66;3613929;39;20070;-68
2023/03/31 03:50:53;;;;;;;13.60;3.10;;;;;;;11.67;87.39;99606.69;3613741;39;20070;-68
2023/03/31 03:53:20;;;;;;;11.30;2.83;;;;;;;11.60;87.83;99584.81;3610693;39;20067;-67
2023/03/31 03:55:47;;;;;;;8.73;2.10;;;;;;;11.56;88.13;99584.25;3607668;39;20055;-67
2023/03/31 03:58:16;;;;;;;11.93;2.65;;;;;;;11.64;87.20;99586.28;3605986;39;20051;-67
2023/03/31 04:00:43;;;;;;;10.25;2.78;;;;;;;11.65;87.27;99576.38;3608768;39;20043;-68
2023/03/31 04:03:09;;;;;;;10.13;2.30;;;;;;;11.61;87.56;99573.09;3610330;39;20063;-68
2023/03/31 04:05:35;;;;;;;16.00;2.67;;;;;;;11.59;87.69;99567.81;3612417;39;20055;-68
2023/03/31 04:08:00;;;;;;;6.85;1.90;;;;;;;11.59;87.10;99558.91;3611485;39;20065;-67
2023/03/31 04:10:26;;;;;;;9.73;2.15;;;;;;;11.59;87.64;99551.69;3613778;39;20054;-67
2023/03/31 04:12:51;;;;;;;8.30;2.25;;;;;;;11.61;87.16;99538.09;3611908;39;20059;-67
2023/03/31 04:15:17;;;;;;;11.73;2.25;;;;;;;11.59;86.84;99532.00;3603677;39;20341;-67
2023/03/31 04:17:47;;;;;;;7.60;1.90;;;;;;;11.60;87.42;99528.31;3609657;39;20054;-68
2023/03/31 04:20:13;;;;;;;7.00;2.00;;;;;;;11.55;87.22;99509.03;3608825;39;20055;-67
2023/03/31 04:22:39;;;;;;;12.88;2.47;;;;;;;11.60;87.63;99504.09;3604429;39;20358;-67
2023/03/31 04:25:16;;;;;;;10.95;2.30;;;;;;;11.62;87.08;99512.88;3611142;39;20063;-68
2023/03/31 04:27:54;;;;;;;8.85;2.20;;;;;;;11.60;87.59;99487.94;3615463;39;20389;-68
2023/03/31 04:30:29;;;;;;;9.20;1.85;;;;;;;11.58;87.63;99482.69;3602923;39;20059;-67
2023/03/31 04:32:59;;;;;;;8.68;2.13;;;;;;;11.57;86.62;99482.81;3604950;39;20055;-67
2023/03/31 04:35:41;;;;;;;9.23;4.20;;;;;;;11.57;86.66;99480.13;3611300;39;20060;-68
2023/03/31 04:38:07;;;;;;;7.53;2.90;;;;;;;11.54;86.55;99469.63;3607386;39;20440;-67
2023/03/31 04:40:34;;;;;;;7.90;1.92;;;;;;;11.55;86.89;99463.28;3613681;39;20372;-68
2023/03/31 04:43:00;;;;;;;8.02;1.83;;;;;;;11.53;86.85;99457.16;3610621;39;20047;-67
2023/03/31 04:45:26;;;;;;;5.93;2.10;;;;;;;11.55;86.44;99458.75;3619506;39;20047;-68
2023/03/31 04:47:51;;;;;;;9.98;2.38;;;;;;;11.56;87.14;99446.97;3607306;39;20275;-68
2023/03/31 04:50:17;;;;;;;8.50;2.40;;;;;;;11.55;86.70;99439.91;3606315;39;20156;-68
2023/03/31 04:52:44;;;;;;;8.98;1.80;;;;;;;11.58;86.18;99442.31;3607901;39;20051;-68
2023/03/31 04:55:10;;;;;;;9.25;2.30;;;;;;;11.59;86.41;99435.09;3612724;39;20046;-68
2023/03/31 04:57:36;;;;;;;9.77;2.33;;;;;;;11.57;86.00;99439.75;3616743;39;20148;-67
2023/03/31 05:00:06;;;;;;;7.88;1.70;;;;;;;11.59;86.45;99435.94;3616425;39;20058;-68
2023/03/31 05:02:33;;;;;;;7.93;2.03;;;;;;;11.23;85.86;99383.56;3611994;39;20301;-68
2023/03/31 05:04:58;;;;;;;8.27;1.55;;;;;;;11.46;86.21;99432.63;3608816;39;20043;-67
2023/03/31 05:07:24;;;;;;;8.43;1.90;;;;;;;11.47;86.22;99422.72;3607528;39;20046;-68
2023/03/31 05:09:49;;;;;;;5.35;1.55;;;;;;;11.42;86.06;99408.81;3611564;39;20067;-67
2023/03/31 05:12:15;;;;;;;6.65;1.90;;;;;;;11.35;86.18;99390.53;3604475;39;20059;-68
2023/03/31 05:14:41;;;;;;;9.95;2.15;;;;;;;11.46;86.27;99407.56;3611914;39;20066;-69
2023/03/31 05:17:06;;;;;;;6.93;1.90;;;;;;;11.41;85.95;99389.13;3605897;39;20057;-68
2023/03/31 05:19:32;;;;;;;7.00;1.67;;;;;;;11.37;85.96;99393.94;3610252;39;20046;-68
2023/03/31 05:21:58;;;;;;;5.07;2.08;;;;;;;11.33;86.16;99379.06;3607359;39;20363;-68
2023/03/31 05:24:24;;;;;;;4.13;1.58;;;;;;;11.35;86.16;99381.59;3607719;39;20055;-68
2023/03/31 05:26:51;;;;;;;3.47;1.67;;;;;;;11.35;85.76;99377.09;3600561;39;20473;-68
2023/03/31 05:29:20;;;;;;;6.72;1.85;;;;;;;11.34;86.26;99374.53;3604542;39;20068;-68
2023/03/31 05:31:47;;;;;;;8.13;2.40;;;;;;;11.34;86.45;99372.69;3609427;39;20067;-68
2023/03/31 05:34:14;;;;;;;5.93;2.13;;;;;;;11.33;86.39;99375.53;3608775;39;20055;-68
2023/03/31 05:36:42;;;;;;;8.88;2.33;;;;;;;11.29;85.83;99361.50;3608497;39;20054;-68
2023/03/31 05:39:09;;;;;;;7.93;1.88;;;;;;;11.36;86.65;99367.19;3609418;39;20055;-68
2023/03/31 05:41:35;;;;;;;7.70;1.52;;;;;;;11.35;86.38;99370.84;3610776;39;20055;-68
2023/03/31 05:44:03;;;;;;;3.20;2.00;;;;;;;11.32;86.26;99363.91;3613995;39;20322;-68
2023/03/31 05:46:29;;;;;;;6.22;1.95;;;;;;;11.34;86.24;99361.91;3610313;39;20089;-68
2023/03/31 05:48:55;;;;;;;4.95;1.70;;;;;;;11.37;86.81;99355.41;3609551;39;20055;-68
2023/03/31 05:51:21;;;;;;;5.90;2.20;;;;;;;11.37;86.37;99364.34;3594564;39;20153;-68
2023/03/31 05:53:47;;;;;;;6.32;1.90;;;;;;;11.37;86.17;99367.03;3608852;39;20143;-68
2023/03/31 05:56:13;;;;;;;7.20;2.03;;;;;;;11.12;86.86;99305.63;3609717;39;20059;-68
2023/03/31 05:58:39;;;;;;;5.80;1.90;;;;;;;11.29;86.67;99339.97;3609508;39;20059;-68
2023/03/31 06:01:09;;;;;;;6.63;1.95;;;;;;;11.36;87.16;99334.91;3614811;39;20055;-68
2023/03/31 06:03:39;;;;;;;7.32;1.92;;;;;;;11.34;87.31;99340.41;3613826;39;20178;-68
2023/03/31 06:06:07;;;;;;;7.28;2.03;;;;;;;11.34;88.02;99329.63;3608235;39;20067;-67
2023/03/31 06:08:34;;;;;;;5.25;1.67;;;;;;;11.35;87.55;99322.41;3610183;39;20058;-68
2023/03/31 06:11:05;;;;;;;7.80;2.03;;;;;;;11.36;87.47;99308.84;3608396;39;20374;-68
2023/03/31 06:13:30;;;;;;;7.20;2.15;;;;;;;11.37;87.19;99325.81;3612187;39;20043;-68
2023/03/31 06:15:59;;;;;;;11.23;2.17;;;;;;;11.33;87.35;99314.50;3609800;39;20051;-68
2023/03/31 06:18:28;;;;;;;5.75;1.98;;;;;;;11.34;88.24;99294.66;3615606;39;20293;-68
2023/03/31 06:20:55;;;;;;;6.85;2.08;;;;;;;11.33;88.31;99303.72;3607128;39;20051;-68
2023/03/31 06:23:23;;;;;;;6.07;2.22;;;;;;;11.33;87.79;99295.66;3609097;39;20051;-68
2023/03/31 06:25:50;;;;;;;5.90;1.60;;;;;;;11.32;87.55;99283.22;3608345;39;20051;-68
2023/03/31 06:28:16;;;;;;;9.55;1.90;;;;;;;11.34;87.77;99291.13;3607863;39;20054;-68
2023/03/31 06:30:42;;;;;;;5.90;2.10;;;;;;;11.34;87.55;99289.28;3608995;39;20059;-68
2023/03/31 06:33:08;;;;;;;8.88;1.83;;;;;;;11.31;87.77;99273.41;3611908;39;20777;-68
2023/03/31 06:35:38;;;;;;;7.93;1.90;;;;;;;11.34;87.96;99283.91;3612414;39;20047;-68
2023/03/31 06:38:03;;;;;;;8.38;2.35;;;;;;;11.32;88.01;99293.09;3611823;39;20046;-68
2023/03/31 06:40:29;;;;;;;7.80;2.05;;;;;;;11.29;88.64;99286.16;3612494;39;20105;-68
2023/03/31 06:42:55;;;;;;;7.68;2.35;;;;;;;11.31;89.42;99284.19;3604176;39;20381;-68
2023/03/31 06:45:21;;;;;;;12.00;2.75;;;;;;;11.27;88.96;99276.53;3612030;39;20511;-68
2023/03/31 06:47:46;;;;;;;13.57;3.10;;;;;;;11.33;89.72;99282.22;3610734;39;20067;-67
2023/03/31 06:50:12;;;;;;;7.57;2.67;;;;;;;11.08;89.29;99245.91;3612026;39;20389;-69
2023/03/31 06:52:39;;;;;;;9.55;2.65;;;;;;;11.37;89.92;99288.16;3610315;39;20062;-67
2023/03/31 06:55:06;;;;;;;6.63;2.05;;;;;;;11.39;89.14;99278.13;3607445;39;20062;-68
2023/03/31 06:57:32;;;;;;;11.10;2.88;;;;;;;11.39;89.53;99268.22;3600109;39;20051;-68
2023/03/31 06:59:59;;;;;;;9.90;2.45;;;;;;;11.38;88.90;99288.03;3611108;39;20351;-67
2023/03/31 07:02:25;;;;;;;10.82;2.78;;;;;;;11.39;89.09;99273.59;3614609;39;20047;-67
2023/03/31 07:04:51;;;;;;;7.50;2.75;;;;;;;11.41;89.53;99283.34;3612264;39;20417;-67
2023/03/31 07:07:17;;;;;;;17.73;3.25;;;;;;;11.37;89.60;99270.16;3609652;39;20051;-66
2023/03/31 07:09:43;;;;;;;12.27;3.15;;;;;;;11.33;89.61;99292.13;3609339;39;20098;-67
2023/03/31 07:12:09;;;;;;;10.70;2.35;;;;;;;11.35;90.58;99274.88;3610136;39;20055;-66
2023/03/31 07:14:35;;;;;;;9.82;3.00;;;;;;;11.39;90.04;99270.91;3609599;39;20061;-66
2023/03/31 07:17:01;;;;;;;12.65;3.08;;;;;;;11.42;89.93;99274.28;3610465;39;20070;-66
2023/03/31 07:19:27;;;;;;;11.95;3.10;;;;;;;11.46;89.99;99264.97;3611818;39;20054;-67
2023/03/31 07:21:53;;;;;;;13.93;3.08;;;;;;;11.53;89.40;99266.94;3612899;39;20055;-66
2023/03/31 07:24:19;;;;;;;62.58;45.92;;;;;;;11.57;89.52;99267.50;3608731;39;20160;-67
2023/03/31 07:26:44;;;;;;;19.20;9.68;;;;;;;11.59;89.01;99254.78;3606244;39;20055;-66
2023/03/31 07:29:10;;;;;;;8.77;3.47;;;;;;;11.57;88.30;99257.59;3608566;39;20054;-65
2023/03/31 07:31:36;;;;;;;4.90;1.42;;;;;;;11.41;86.70;99240.31;3610326;39;20055;-66
2023/03/31 07:34:03;;;;;;;6.22;1.48;;;;;;;11.47;86.11;99247.81;3609556;39;20434;-64
2023/03/31 07:36:30;;;;;;;6.43;1.50;;;;;;;11.27;86.23;99230.81;3609879;39;20123;-65
2023/03/31 07:38:56;;;;;;;5.57;1.65;;;;;;;11.51;86.15;99249.22;3609873;39;20408;-66
2023/03/31 07:41:23;;;;;;;6.35;1.58;;;;;;;11.53;85.93;99252.66;3610158;39;20087;-64
2023/03/31 07:43:50;;;;;;;8.57;1.88;;;;;;;11.51;86.30;99246.53;3608061;39;20061;-65
2023/03/31 07:46:23;;;;;;;8.13;1.88;;;;;;;11.56;86.97;99249.69;3608045;39;20066;-64
2023/03/31 07:48:50;;;;;;;6.20;2.13;;;;;;;11.59;87.53;99244.00;3609197;39;20065;-64
2023/03/31 07:51:19;;;;;;;8.77;2.58;;;;;;;11.66;88.02;99247.84;3608086;39;20054;-64
2023/03/31 07:53:48;;;;;;;11.68;2.78;;;;;;;11.74;88.73;99242.63;3598038;39;20659;-64
2023/03/31 07:56:15;;;;;;;7.60;2.38;;;;;;;11.72;88.63;99227.59;3608880;39;20062;-64
2023/03/31 07:58:42;;;;;;;13.65;2.50;;;;;;;11.84;87.71;99232.72;3609958;39;20055;-65
2023/03/31 08:01:07;;;;;;;10.00;3.00;;;;;;;11.91;88.63;99238.38;3614091;39;20057;-64
2023/03/31 08:03:33;;;;;;;12.38;2.90;;;;;;;11.99;87.92;99230.44;3614239;39;20059;-64
2023/03/31 08:05:59;;;;;;;16.52;3.38;;;;;;;11.74;87.64;99182.53;3607538;39;20062;-65
2023/03/31 08:08:25;;;;;;;12.45;3.30;;;;;;;12.14;87.54;99230.84;3612695;39;20059;-65
2023/03/31 08:10:51;;;;;;;13.20;2.95;;;;;;;12.18;87.39;99237.66;3608139;39;20358;-65
2023/03/31 08:13:17;;;;;;;11.10;3.00;;;;;;;12.27;87.79;99222.44;3609549;39;20400;-66
2023/03/31 08:15:43;;;;;;;11.82;2.75;;;;;;;12.30;87.06;99211.38;3609648;39;20059;-65
2023/03/31 08:18:09;;;;;;;31.55;22.02;;;;;;;12.46;87.83;99219.72;3611504;39;20074;-66
2023/03/31 08:20:35;;;;;;;19.90;6.75;;;;;;;12.49;86.80;99219.41;3608064;39;20407;-65
2023/03/31 08:23:01;;;;;;;14.10;3.20;;;;;;;12.55;86.62;99215.28;3605950;39;20081;-65
2023/03/31 08:25:26;;;;;;;14.77;3.83;;;;;;;12.47;86.16;99191.78;3605976;39;20397;-65
2023/03/31 08:27:52;;;;;;;11.20;3.25;;;;;;;12.52;85.38;99194.84;3607418;39;20055;-65
2023/03/31 08:30:19;;;;;;;11.38;2.78;;;;;;;12.51;85.21;99192.31;3606371;39;20073;-66
2023/03/31 08:32:45;;;;;;;11.93;3.08;;;;;;;12.69;84.76;99212.13;3606090;39;20110;-65
2023/03/31 08:35:11;;;;;;;15.98;3.15;;;;;;;12.73;84.52;99220.75;3607849;39;20055;-66
2023/03/31 08:37:37;;;;;;;14.60;3.47;;;;;;;12.81;85.06;99210.06;3608986;39;20073;-66
2023/03/31 08:40:08;;;;;;;16.52;3.90;;;;;;;12.87;84.61;99214.03;3610818;39;20054;-66
2023/03/31 08:42:39;;;;;;;20.60;3.88;;;;;;;12.87;84.24;99209.47;3610711;39;20043;-66
2023/03/31 08:45:16;;;;;;;15.52;3.33;;;;;;;12.90;83.99;99217.25;3606916;39;20051;-66
2023/03/31 08:47:45;;;;;;;14.45;3.38;;;;;;;12.66;84.02;99168.44;3606153;39;20063;-65
2023/03/31 08:50:20;;;;;;;17.58;3.78;;;;;;;12.90;83.65;99208.31;3608288;39;20328;-64
2023/03/31 08:53:23;;;;;;;13.25;3.92;;;;;;;12.99;83.43;99207.44;3608881;39;20091;-65
2023/03/31 08:55:53;;;;;;;15.85;2.83;;;;;;;13.01;81.91;99200.06;3609492;39;20087;-66
2023/03/31 08:58:48;;;;;;;12.70;3.47;;;;;;;13.11;81.88;99206.25;3609652;39;20061;-66
2023/03/31 09:01:54;;;;;;;17.67;3.35;;;;;;;13.18;81.34;99204.63;3606231;39;20047;-67
2023/03/31 09:04:32;;;;;;;12.70;2.78;;;;;;;13.20;79.50;99209.88;3606100;39;20824;-66
2023/03/31 09:07:19;;;;;;;11.45;2.88;;;;;;;13.27;79.71;99204.75;3607404;39;20341;-69
2023/03/31 09:09:57;;;;;;;11.32;3.10;;;;;;;13.30;80.57;99199.91;3607116;39;20412;-69
2023/03/31 09:12:46;;;;;;;15.77;3.58;;;;;;;13.42;78.42;99212.19;3608105;39;20473;-69
2023/03/31 09:16:04;;;;;;;16.10;3.42;;;;;;;13.53;78.41;99199.47;3608684;39;20084;-69
2023/03/31 09:18:37;;;;;;;17.98;5.85;;;;;;;13.55;76.36;99198.31;3608455;39;20084;-69
2023/03/31 09:21:24;;;;;;;15.93;3.65;;;;;;;13.54;76.36;99183.13;3608079;39;20058;-69
2023/03/31 09:24:36;;;;;;;14.13;3.60;;;;;;;13.55;74.96;99194.75;3611081;39;20047;-69
2023/03/31 09:27:07;;;;;;;13.82;3.28;;;;;;;13.47;74.34;99182.84;3609202;39;20059;-69
2023/03/31 09:29:44;;;;;;;14.45;3.53;;;;;;;13.53;73.66;99184.09;3610717;39;20039;-69
2023/03/31 09:32:30;;;;;;;12.50;2.92;;;;;;;13.57;73.30;99182.78;3596943;39;20451;-69
2023/03/31 09:35:14;;;;;;;11.88;3.22;;;;;;;13.65;73.80;99160.44;3610240;39;20470;-69
2023/03/31 09:37:40;;;;;;;10.60;2.78;;;;;;;13.71;71.89;99178.72;3609293;39;21241;-69
2023/03/31 09:40:08;;;;;;;11.38;2.80;;;;;;;13.76;71.79;99172.81;3609730;39;20051;-68
2023/03/31 09:42:36;;;;;;;13.15;3.28;;;;;;;13.91;72.21;99171.25;3610095;39;20051;-68
2023/03/31 09:45:03;;;;;;;12.20;2.63;;;;;;;13.78;70.64;99125.75;3609605;39;20083;-67
2023/03/31 09:47:42;;;;;;;10.55;2.78;;;;;;;14.09;70.04;99163.13;3607096;39;20082;-67
2023/03/31 09:50:10;;;;;;;15.15;3.63;;;;;;;14.21;70.76;99171.81;3611452;39;20051;-67
2023/03/31 09:52:57;;;;;;;14.80;3.28;;;;;;;14.27;69.68;99160.34;3608956;39;20569;-67
2023/03/31 09:55:46;;;;;;;14.30;3.03;;;;;;;14.38;69.11;99171.75;3609097;39;20425;-67
2023/03/31 09:58:17;;;;;;;12.27;2.97;;;;;;;14.46;68.00;99164.69;3609045;39;20055;-67
2023/03/31 10:01:07;;;;;;;10.82;2.60;;;;;;;14.43;66.53;99160.47;3607073;39;20169;-68
2023/03/31 10:03:50;;;;;;;12.43;2.97;;;;;;;14.34;66.52;99129.00;3608246;39;20463;-67
2023/03/31 10:06:17;;;;;;;9.20;3.00;;;;;;;14.52;65.80;99161.38;3609462;39;20055;-66
2023/03/31 10:09:00;;;;;;;9.70;2.75;;;;;;;14.56;65.64;99157.38;3609040;39;20466;-67
2023/03/31 10:11:27;;;;;;;7.88;2.17;;;;;;;14.50;65.53;99160.69;3616738;39;20059;-67
2023/03/31 10:14:04;;;;;;;12.18;3.08;;;;;;;14.43;65.44;99160.47;3607650;39;20120;-67
2023/03/31 10:16:32;;;;;;;11.32;2.58;;;;;;;14.37;65.81;99151.16;3608112;39;20040;-67
2023/03/31 10:19:18;;;;;;;8.98;2.22;;;;;;;14.43;66.28;99159.63;3611431;39;20064;-67
2023/03/31 10:21:58;;;;;;;9.13;2.58;;;;;;;14.28;65.07;99145.88;3598079;39;20537;-68
2023/03/31 10:24:36;;;;;;;8.07;2.22;;;;;;;14.40;66.53;99147.28;3612497;39;20063;-66
2023/03/31 10:27:06;;;;;;;10.93;2.83;;;;;;;14.40;65.31;99155.41;3612274;39;20046;-68
2023/03/31 10:29:34;;;;;;;11.52;2.65;;;;;;;14.39;65.35;99140.16;3606718;39;20687;-67
2023/03/31 10:32:29;;;;;;;7.85;2.30;;;;;;;14.37;65.12;99136.78;3610943;39;20062;-68
2023/03/31 10:34:58;;;;;;;12.88;2.92;;;;;;;14.24;66.61;99117.44;3608640;39;20336;-67
2023/03/31 10:37:28;;;;;;;10.10;2.63;;;;;;;14.36;67.42;99145.88;3610153;39;20074;-67
2023/03/31 10:40:24;;;;;;;8.45;2.30;;;;;;;14.27;66.63;99136.91;3599786;39;20178;-68
2023/03/31 10:43:44;;;;;;;8.63;2.20;;;;;;;14.12;66.85;99115.03;3608704;39;20380;-68
2023/03/31 10:46:11;;;;;;;11.07;2.78;;;;;;;14.23;67.60;99130.09;3576126;39;20382;-68
2023/03/31 10:48:41;;;;;;;9.68;2.78;;;;;;;14.33;68.27;99127.28;3599158;39;20094;-68
2023/03/31 10:51:17;;;;;;;22.25;11.23;;;;;;;14.39;66.95;99113.97;3600860;39;20051;-67
2023/03/31 10:53:50;;;;;;;22.85;10.70;;;;;;;14.47;67.62;99124.00;3598757;39;20059;-67
2023/03/31 10:56:47;;;;;;;13.25;3.03;;;;;;;14.55;65.60;99109.69;3611919;39;20312;-68
2023/03/31 10:59:36;;;;;;;11.30;2.85;;;;;;;14.56;66.09;99101.44;3614651;39;20126;-68
2023/03/31 11:02:05;;;;;;;10.20;2.95;;;;;;;14.51;65.68;99125.38;3607849;39;20059;-67
2023/03/31 11:05:02;;;;;;;12.38;3.30;;;;;;;14.37;66.43;99116.00;3607168;39;20374;-67
2023/03/31 11:07:54;;;;;;;13.98;2.80;;;;;;;14.19;67.40;99117.94;3605201;39;20380;-66
2023/03/31 11:10:35;;;;;;;13.32;2.75;;;;;;;13.98;67.77;99122.84;3609886;39;20123;-66
2023/03/31 11:13:19;;;;;;;11.88;2.78;;;;;;;13.86;69.05;99111.44;3603062;39;20169;-66
2023/03/31 11:16:06;;;;;;;;;;;;;;;13.76;70.28;99121.50;3610525;39;20111;-64
2023/03/31 11:18:58;;;;;;;13.23;3.10;;;;;;;13.65;71.43;99118.06;3608590;39;19943;-64
2023/03/31 11:21:46;;;;;;;10.52;3.17;;;;;;;13.81;73.64;99094.91;3610375;39;20047;-64
2023/03/31 11:25:11;;;;;;;10.68;2.88;;;;;;;13.88;71.95;99096.78;3611694;39;20042;-64
2023/03/31 11:28:29;;;;;;;15.50;3.80;;;;;;;13.98;71.46;99102.09;3595807;39;20102;-63
2023/03/31 11:31:30;;;;;;;13.52;3.58;;;;;;;14.14;70.59;99094.09;3602350;39;20055;-63
2023/03/31 11:34:43;;;;;;;12.65;3.22;;;;;;;14.28;68.37;99087.25;3614740;39;20054;-64
2023/03/31 11:37:57;;;;;;;12.40;2.90;;;;;;;14.33;66.36;99078.63;3607100;39;20167;-66
2023/03/31 11:40:31;;;;;;;13.77;3.25;;;;;;;14.34;66.31;99077.66;3611457;39;20054;-67
2023/03/31 11:43:08;;;;;;;11.65;3.38;;;;;;;14.32;64.99;99071.53;3610688;39;20047;-67
2023/03/31 11:45:44;;;;;;;8.63;2.47;;;;;;;14.30;64.17;99079.84;3610370;39;20694;-69
2023/03/31 11:48:41;;;;;;;11.27;2.97;;;;;;;14.32;63.05;99068.84;3608524;39;20098;-70
2023/03/31 11:51:25;;;;;;;8.60;2.42;;;;;;;14.16;62.99;99012.88;3609230;39;20051;-72
2023/03/31 11:53:57;;;;;;;10.35;3.00;;;;;;;14.60;63.43;99045.16;3611068;39;20386;-72
2023/03/31 11:56:35;;;;;;;13.18;2.70;;;;;;;14.77;62.08;99062.28;3611410;39;20050;-72
2023/03/31 11:59:03;;;;;;;12.93;2.70;;;;;;;14.79;62.25;99047.56;3613145;39;20062;-70
2023/03/31 12:02:15;;;;;;;9.32;2.55;;;;;;;14.94;60.31;99050.50;3614604;39;20434;-70